Lunch Box — WDJ4295 — position and weather

sailwx.info

Track history (hours):
 
Tides and Currents Weather Stations Pressure Air Temp Water Temp Dewpoint Dewpoint Depression Visibility Wind Speed Wind Dir Waves Ship Positions

Lunch Box

Owner: HNY Ferry Fleet, New York, NY. More information available from US FCC via Universal Licensing System and Coast Guard Vessel Documentation Center.

Last reported at 2017-Dec-11 17:00 UTC. Time now 2017-Dec-14 13:20 UTC.
Position N 40°45' W 073°58'.

Length 26 m; draft 2 m.

Type: Passenger vessel. MMSI: 367776270.

Date/timePositionNaut miles runAvg speedWind from/ knotsBaromVisibWave heightAir tempDewpointWater temp
2017-Dec-11 17:00N 40°45' W 073°58'0 0.3
2017-Dec-11 16:30N 40°45' W 073°58'2 4.5
2017-Dec-11 16:00N 40°46' W 073°56'5 5.1
2017-Dec-11 15:01N 40°42' W 074°00'4 7.8
2017-Dec-11 14:30N 40°45' W 073°57'0 0.5
2017-Dec-11 14:01N 40°46' W 073°57'4 7.4
2017-Dec-11 13:31N 40°42' W 073°59'3 5.6
2017-Dec-11 13:00N 40°45' W 073°57'2 3.2
2017-Dec-11 12:31N 40°43' W 073°58'1 2.7
2017-Dec-11 12:00N 40°42' W 073°58'0 0.0
2017-Dec-11 03:30N 40°42' W 073°58'2 3.6
2017-Dec-11 03:00N 40°44' W 073°58'3 5.1
2017-Dec-11 02:30N 40°42' W 074°00'2 4.3
2017-Dec-11 02:01N 40°43' W 073°58'1 1.2
2017-Dec-11 01:30N 40°44' W 073°58'3 5.0
2017-Dec-11 01:01N 40°42' W 074°00'2 4.2
2017-Dec-11 00:31N 40°43' W 073°58'1 1.2
2017-Dec-11 00:00N 40°44' W 073°58'3 5.1
2017-Dec-10 23:30N 40°42' W 074°00'3 5.0
2017-Dec-10 23:00N 40°44' W 073°58'0 0.0
2017-Dec-10 22:31N 40°44' W 073°58'3 5.0
2017-Dec-10 22:00N 40°42' W 074°00'2 4.3
2017-Dec-10 21:31N 40°43' W 073°58'1 1.2
2017-Dec-10 21:00N 40°44' W 073°58'3 5.1
2017-Dec-10 20:30N 40°42' W 074°00'2 4.3
2017-Dec-10 20:00N 40°43' W 073°58'1 1.2
2017-Dec-10 19:30N 40°44' W 073°58'3 5.0
2017-Dec-10 19:01N 40°42' W 074°00'2 4.2
2017-Dec-10 18:30N 40°43' W 073°58'1 1.2
2017-Dec-10 18:00N 40°44' W 073°58'2 5.0
2017-Dec-10 17:31N 40°42' W 074°00'2 4.2
2017-Dec-10 17:00N 40°43' W 073°58'1 1.3
2017-Dec-10 16:30N 40°44' W 073°58'3 5.0
2017-Dec-10 16:00N 40°42' W 074°00'2 4.2
2017-Dec-10 15:31N 40°43' W 073°58'1 1.2
2017-Dec-10 15:00N 40°44' W 073°58'3 5.1
2017-Dec-10 14:31N 40°42' W 074°00'2 4.2
2017-Dec-10 14:00N 40°43' W 073°58'1 1.2
2017-Dec-10 13:30N 40°44' W 073°58'3 5.1
2017-Dec-10 13:00N 40°42' W 074°00'2 4.2
2017-Dec-10 12:31N 40°43' W 073°58'1 1.5
2017-Dec-10 12:01N 40°44' W 073°58'3 5.1
2017-Dec-10 11:30N 40°42' W 074°00'2 3.1
2017-Dec-10 11:00N 40°42' W 073°58'0 0.0
2017-Dec-10 03:34N 40°42' W 073°58'0 0.0
2017-Dec-10 03:30N 40°42' W 073°58'2 4.5
2017-Dec-10 03:01N 40°41' W 074°01'3 5.4
2017-Dec-10 02:31N 40°38' W 074°02'3 6.5
2017-Dec-10 02:00N 40°41' W 074°00'1 2.0
2017-Dec-10 01:30N 40°42' W 073°60'4 7.4
2017-Dec-10 01:01N 40°39' W 074°02'2 4.5
2017-Dec-10 00:31N 40°41' W 074°01'1 2.6
2017-Dec-10 00:01N 40°42' W 074°00'1 2.6
2017-Dec-09 23:30N 40°41' W 074°01'2 4.5
2017-Dec-09 23:01N 40°39' W 074°02'4 7.3
2017-Dec-09 22:30N 40°42' W 073°60'1 2.8
2017-Dec-09 22:01N 40°41' W 074°01'3 5.7
2017-Dec-09 21:31N 40°38' W 074°02'3 6.8
2017-Dec-09 21:00N 40°42' W 074°00'1 1.4
2017-Dec-09 20:30N 40°42' W 073°60'4 7.1
2017-Dec-09 20:01N 40°39' W 074°02'2 3.7
2017-Dec-09 19:31N 40°41' W 074°01'2 3.4
2017-Dec-09 19:00N 40°42' W 074°00'1 2.7
2017-Dec-09 18:30N 40°41' W 074°01'2 4.3
2017-Dec-09 18:01N 40°39' W 074°02'3 6.9
2017-Dec-09 17:30N 40°42' W 073°60'1 1.9
2017-Dec-09 17:00N 40°41' W 074°01'3 6.2
2017-Dec-09 16:30N 40°38' W 074°02'3 6.5
2017-Dec-09 16:01N 40°41' W 074°00'1 2.0
2017-Dec-09 15:30N 40°42' W 073°60'4 7.4
2017-Dec-09 15:00N 40°39' W 074°02'2 3.6
2017-Dec-09 14:31N 40°41' W 074°01'2 3.4
2017-Dec-09 14:00N 40°42' W 074°00'1 2.7
2017-Dec-09 13:30N 40°41' W 074°01'2 4.4
2017-Dec-09 13:01N 40°39' W 074°02'4 7.4
2017-Dec-09 12:31N 40°42' W 073°60'1 0.1
2017-Dec-09 03:47N 40°42' W 073°58'2 5.6
2017-Dec-09 03:30N 40°42' W 074°00'4 7.0
2017-Dec-09 03:00N 40°39' W 074°02'2 4.5
2017-Dec-09 02:31N 40°41' W 074°01'1 2.6
2017-Dec-09 02:00N 40°42' W 074°00'1 2.8
2017-Dec-09 01:31N 40°41' W 074°01'2 4.3
2017-Dec-09 01:01N 40°39' W 074°02'4 7.3
2017-Dec-09 00:30N 40°42' W 073°60'1 2.3
2017-Dec-09 00:01N 40°42' W 073°58'3 6.9
2017-Dec-08 23:30N 40°45' W 073°57'4 8.0
2017-Dec-08 23:00N 40°42' W 074°00'4 7.6
2017-Dec-08 22:30N 40°45' W 073°57'1 2.2
2017-Dec-08 22:00N 40°46' W 073°56'3 6.0
2017-Dec-08 21:31N 40°44' W 073°58'3 5.4
2017-Dec-08 21:01N 40°42' W 074°01'0 0.3
2017-Dec-08 20:30N 40°41' W 074°01'1 1.5
2017-Dec-08 20:01N 40°42' W 074°00'4 8.2
2017-Dec-08 19:30N 40°46' W 073°57'0 0.3
2017-Dec-08 19:00N 40°46' W 073°57'4 8.6
2017-Dec-08 18:31N 40°42' W 074°00'3 7.0
2017-Dec-08 18:00N 40°45' W 073°57'2 3.2
2017-Dec-08 17:29N 40°46' W 073°56'3 6.6
2017-Dec-08 17:01N 40°44' W 073°58'1 2.2
2017-Dec-08 16:30N 40°45' W 073°58'2 4.5
2017-Dec-08 16:00N 40°46' W 073°56'2 3.4
2017-Dec-08 15:30N 40°45' W 073°57'3 5.9
2017-Dec-08 15:00N 40°42' W 073°59'4 8.4
2017-Dec-08 14:30N 40°46' W 073°57'1 1.2
2017-Dec-08 14:00N 40°45' W 073°57'4 7.3
2017-Dec-08 13:31N 40°42' W 073°59'3 6.5
2017-Dec-08 13:00N 40°45' W 073°57'3 5.4
2017-Dec-08 12:30N 40°43' W 073°58'1 1.3
2017-Dec-08 12:00N 40°42' W 073°58'0 0.0
2017-Dec-08 11:30N 40°42' W 073°58'0 0.0
2017-Dec-08 01:59N 40°42' W 073°58'1 1.3
2017-Dec-08 01:31N 40°42' W 073°59'2 3.0
2017-Dec-08 01:00N 40°44' W 073°58'0 0.1
2017-Dec-08 00:30N 40°44' W 073°58'2 4.8
2017-Dec-08 00:00N 40°42' W 074°00'3 5.1
2017-Dec-07 23:31N 40°44' W 073°58'1 1.3
2017-Dec-07 23:00N 40°43' W 073°58'2 4.3
2017-Dec-07 22:30N 40°42' W 074°00'3 5.4
2017-Dec-07 22:01N 40°44' W 073°58'1 1.8
2017-Dec-07 21:31N 40°43' W 073°58'2 4.3
2017-Dec-07 21:01N 40°42' W 074°00'3 6.0
2017-Dec-07 20:30N 40°44' W 073°58'2 3.4
2017-Dec-07 20:01N 40°43' W 073°58'2 3.1
2017-Dec-07 19:31N 40°42' W 074°00'3 5.9
2017-Dec-07 19:00N 40°45' W 073°58'2 4.0
2017-Dec-07 18:30N 40°43' W 073°58'1 2.4
2017-Dec-07 18:00N 40°42' W 073°60'3 5.6
2017-Dec-07 17:31N 40°45' W 073°58'2 4.1
2017-Dec-07 17:00N 40°43' W 073°58'1 2.4
2017-Dec-07 16:30N 40°42' W 073°60'3 5.2
2017-Dec-07 16:00N 40°45' W 073°58'2 4.2
2017-Dec-07 15:31N 40°43' W 073°58'1 1.5
2017-Dec-07 15:01N 40°42' W 073°59'2 4.8
2017-Dec-07 14:30N 40°45' W 073°58'2 4.3
2017-Dec-07 14:01N 40°43' W 073°58'0 0.5
2017-Dec-07 13:30N 40°43' W 073°59'2 4.3
2017-Dec-07 13:00N 40°45' W 073°58'2 4.3
2017-Dec-07 12:31N 40°43' W 073°58'0 0.1
2017-Dec-07 12:01N 40°43' W 073°58'2 4.1
2017-Dec-07 11:30N 40°45' W 073°58'3 5.1
2017-Dec-07 11:00N 40°42' W 073°58'0 0.0
2017-Dec-07 03:27N 40°42' W 073°58'3 5.9
2017-Dec-07 03:00N 40°45' W 073°58'2 4.4
2017-Dec-07 02:31N 40°43' W 073°58'1 1.4
2017-Dec-07 02:01N 40°42' W 073°59'2 4.6
2017-Dec-07 01:30N 40°45' W 073°58'2 4.4
2017-Dec-07 01:00N 40°43' W 073°58'0 0.1
2017-Dec-07 00:31N 40°42' W 073°59'2 4.5
2017-Dec-07 00:00N 40°45' W 073°58'2 4.8
2017-Dec-06 23:30N 40°42' W 073°59'1 1.1
2017-Dec-06 23:00N 40°43' W 073°58'2 4.4
2017-Dec-06 22:31N 40°45' W 073°58'3 5.5
2017-Dec-06 22:00N 40°42' W 073°60'1 2.3
2017-Dec-06 21:31N 40°43' W 073°58'2 3.9
2017-Dec-06 21:00N 40°45' W 073°58'  
2017-Dec-04 03:25N 40°42' W 073°58'2 4.6
2017-Dec-04 03:00N 40°44' W 073°58'3 5.1
2017-Dec-04 02:30N 40°42' W 074°00'2 4.3
2017-Dec-04 02:00N 40°43' W 073°58'1 1.2
2017-Dec-04 01:31N 40°44' W 073°58'3 5.1
2017-Dec-04 01:01N 40°42' W 074°00'2 4.3
2017-Dec-04 00:30N 40°43' W 073°58'1 1.2
2017-Dec-04 00:00N 40°44' W 073°58'3 5.1
2017-Dec-03 23:30N 40°42' W 074°00'2 4.3
2017-Dec-03 23:00N 40°43' W 073°58'1 1.2
2017-Dec-03 22:30N 40°44' W 073°58'3 5.1
2017-Dec-03 22:00N 40°42' W 074°00'2 4.2
2017-Dec-03 21:30N 40°43' W 073°58'1 1.3
2017-Dec-03 21:00N 40°44' W 073°58'3 5.1
2017-Dec-03 20:30N 40°42' W 074°00'2 4.3
2017-Dec-03 20:01N 40°43' W 073°58'1 1.2
2017-Dec-03 19:30N 40°44' W 073°58'3 5.1
2017-Dec-03 19:00N 40°42' W 074°00'2 4.3
2017-Dec-03 18:31N 40°43' W 073°58'1 1.4
2017-Dec-03 18:00N 40°44' W 073°58'3 5.0
2017-Dec-03 17:30N 40°42' W 074°00'2 4.2
2017-Dec-03 17:01N 40°43' W 073°58'1 1.4
2017-Dec-03 16:30N 40°44' W 073°58'3 5.0
2017-Dec-03 16:01N 40°42' W 074°00'2 4.2
2017-Dec-03 15:31N 40°43' W 073°58'1 1.5
2017-Dec-03 15:00N 40°44' W 073°58'3 5.1
2017-Dec-03 14:31N 40°42' W 074°00'2 4.2
2017-Dec-03 14:00N 40°43' W 073°58'1 1.4
2017-Dec-03 13:31N 40°44' W 073°58'3 5.0
2017-Dec-03 13:01N 40°42' W 074°00'2 4.2
2017-Dec-03 12:30N 40°43' W 073°58'1 1.3
2017-Dec-03 12:01N 40°44' W 073°58'3 5.0
2017-Dec-03 11:30N 40°42' W 074°00'2 3.1
2017-Dec-03 11:00N 40°42' W 073°58'0 0.0
2017-Dec-03 03:47N 40°42' W 073°58'2 8.3
2017-Dec-03 03:31N 40°41' W 074°01'0 0.9
2017-Dec-03 03:01N 40°41' W 074°01'2 3.3
2017-Dec-03 02:31N 40°42' W 074°00'1 2.8
2017-Dec-03 02:01N 40°41' W 074°01'2 4.3
2017-Dec-03 01:31N 40°39' W 074°02'4 7.4
2017-Dec-03 01:01N 40°42' W 073°60'1 2.6
2017-Dec-03 00:31N 40°41' W 074°01'3 5.9
2017-Dec-03 00:01N 40°38' W 074°02'4 7.0
2017-Dec-02 23:30N 40°42' W 074°00'1 1.5
2017-Dec-02 23:01N 40°42' W 073°60'4 7.4
2017-Dec-02 22:31N 40°39' W 074°02'2 3.2
2017-Dec-02 22:01N 40°40' W 074°01'2 4.3
2017-Dec-02 21:30N 40°42' W 073°60'2 3.2
2017-Dec-02 21:01N 40°41' W 074°01'0 0.3
2017-Dec-02 20:31N 40°41' W 074°01'0 0.3
2017-Dec-02 20:00N 40°41' W 074°01'0 0.0
2017-Dec-02 19:30N 40°41' W 074°01'3 5.4
2017-Dec-02 19:01N 40°38' W 074°02'3 7.0
2017-Dec-02 18:31N 40°42' W 074°00'1 1.5
2017-Dec-02 18:01N 40°42' W 073°60'4 7.1
2017-Dec-02 17:31N 40°39' W 074°02'1 2.6
2017-Dec-02 17:01N 40°40' W 074°01'2 4.2
2017-Dec-02 16:31N 40°42' W 074°00'1 2.7
2017-Dec-02 16:00N 40°41' W 074°01'2 3.1
2017-Dec-02 15:30N 40°42' W 073°60'0 0.0
2017-Dec-02 15:01N 40°42' W 073°60'1 2.3
2017-Dec-02 14:31N 40°41' W 074°01'3 6.3
2017-Dec-02 14:01N 40°38' W 074°02'3 6.1
2017-Dec-02 13:31N 40°41' W 074°01'1 2.5
2017-Dec-02 13:00N 40°42' W 073°60'4 7.2
2017-Dec-02 12:31N 40°39' W 074°02'4 7.7
2017-Dec-02 12:01N 40°42' W 073°59'1 1.8
2017-Dec-02 11:31N 40°42' W 073°58'0 0.0
2017-Dec-02 04:06N 40°42' W 073°58'0 2.8
2017-Dec-02 04:01N 40°42' W 073°58'4 8.3
2017-Dec-02 03:31N 40°39' W 074°02'4 7.3
2017-Dec-02 03:00N 40°42' W 073°60'1 1.1
2017-Dec-02 02:31N 40°42' W 074°00'4 7.5
2017-Dec-02 02:00N 40°38' W 074°02'4 7.1
2017-Dec-02 01:30N 40°42' W 074°00'1 1.3
2017-Dec-02 01:01N 40°42' W 074°00'3 6.9
2017-Dec-02 00:30N 40°39' W 074°02'2 4.5
2017-Dec-02 00:00N 40°41' W 074°01'1 2.5
2017-Dec-01 23:30N 40°42' W 074°00'4 7.1
2017-Dec-01 23:00N 40°39' W 074°02'2 4.5
2017-Dec-01 22:31N 40°41' W 074°01'1 2.7
2017-Dec-01 22:00N 40°42' W 074°00'4 7.1
2017-Dec-01 21:30N 40°39' W 074°02'2 4.5
2017-Dec-01 21:00N 40°41' W 074°01'1 2.5
2017-Dec-01 20:31N 40°42' W 074°00'1 2.7
2017-Dec-01 20:01N 40°41' W 074°01'2 4.0
2017-Dec-01 19:31N 40°39' W 074°02'4 7.0
2017-Dec-01 19:01N 40°42' W 073°60'1 1.3
2017-Dec-01 18:31N 40°42' W 074°00'4 7.2
2017-Dec-01 18:01N 40°38' W 074°02'4 7.1
2017-Dec-01 17:30N 40°42' W 074°00'1 1.5
2017-Dec-01 17:01N 40°42' W 073°60'  
Track history (hours):
 
Tides and Currents Weather Stations Pressure Air Temp Water Temp Dewpoint Dewpoint Depression Visibility Wind Speed Wind Dir Waves Ship Positions

Lunch Box

Owner: HNY Ferry Fleet, New York, NY. More information available from US FCC via Universal Licensing System and Coast Guard Vessel Documentation Center.

Last reported at 2017-Dec-11 17:00 UTC. Time now 2017-Dec-14 13:20 UTC.
Position N 40°45' W 073°58'.

Length 26 m; draft 2 m.

Type: Passenger vessel. MMSI: 367776270.

Date/timePositionNaut miles runAvg speedWind from/ knotsBaromVisibWave heightAir tempDewpointWater temp
2017-Dec-11 17:00N 40°45' W 073°58'0 0.3
2017-Dec-11 16:30N 40°45' W 073°58'2 4.5
2017-Dec-11 16:00N 40°46' W 073°56'5 5.1
2017-Dec-11 15:01N 40°42' W 074°00'4 7.8
2017-Dec-11 14:30N 40°45' W 073°57'0 0.5
2017-Dec-11 14:01N 40°46' W 073°57'4 7.4
2017-Dec-11 13:31N 40°42' W 073°59'3 5.6
2017-Dec-11 13:00N 40°45' W 073°57'2 3.2
2017-Dec-11 12:31N 40°43' W 073°58'1 2.7
2017-Dec-11 12:00N 40°42' W 073°58'0 0.0
2017-Dec-11 03:30N 40°42' W 073°58'2 3.6
2017-Dec-11 03:00N 40°44' W 073°58'3 5.1
2017-Dec-11 02:30N 40°42' W 074°00'2 4.3
2017-Dec-11 02:01N 40°43' W 073°58'1 1.2
2017-Dec-11 01:30N 40°44' W 073°58'3 5.0
2017-Dec-11 01:01N 40°42' W 074°00'2 4.2
2017-Dec-11 00:31N 40°43' W 073°58'1 1.2
2017-Dec-11 00:00N 40°44' W 073°58'3 5.1
2017-Dec-10 23:30N 40°42' W 074°00'3 5.0
2017-Dec-10 23:00N 40°44' W 073°58'0 0.0
2017-Dec-10 22:31N 40°44' W 073°58'3 5.0
2017-Dec-10 22:00N 40°42' W 074°00'2 4.3
2017-Dec-10 21:31N 40°43' W 073°58'1 1.2
2017-Dec-10 21:00N 40°44' W 073°58'3 5.1
2017-Dec-10 20:30N 40°42' W 074°00'2 4.3
2017-Dec-10 20:00N 40°43' W 073°58'1 1.2
2017-Dec-10 19:30N 40°44' W 073°58'3 5.0
2017-Dec-10 19:01N 40°42' W 074°00'2 4.2
2017-Dec-10 18:30N 40°43' W 073°58'1 1.2
2017-Dec-10 18:00N 40°44' W 073°58'2 5.0
2017-Dec-10 17:31N 40°42' W 074°00'2 4.2
2017-Dec-10 17:00N 40°43' W 073°58'1 1.3
2017-Dec-10 16:30N 40°44' W 073°58'3 5.0
2017-Dec-10 16:00N 40°42' W 074°00'2 4.2
2017-Dec-10 15:31N 40°43' W 073°58'1 1.2
2017-Dec-10 15:00N 40°44' W 073°58'3 5.1
2017-Dec-10 14:31N 40°42' W 074°00'2 4.2
2017-Dec-10 14:00N 40°43' W 073°58'1 1.2
2017-Dec-10 13:30N 40°44' W 073°58'3 5.1
2017-Dec-10 13:00N 40°42' W 074°00'2 4.2
2017-Dec-10 12:31N 40°43' W 073°58'1 1.5
2017-Dec-10 12:01N 40°44' W 073°58'3 5.1
2017-Dec-10 11:30N 40°42' W 074°00'2 3.1
2017-Dec-10 11:00N 40°42' W 073°58'0 0.0
2017-Dec-10 03:34N 40°42' W 073°58'0 0.0
2017-Dec-10 03:30N 40°42' W 073°58'2 4.5
2017-Dec-10 03:01N 40°41' W 074°01'3 5.4
2017-Dec-10 02:31N 40°38' W 074°02'3 6.5
2017-Dec-10 02:00N 40°41' W 074°00'1 2.0
2017-Dec-10 01:30N 40°42' W 073°60'4 7.4
2017-Dec-10 01:01N 40°39' W 074°02'2 4.5
2017-Dec-10 00:31N 40°41' W 074°01'1 2.6
2017-Dec-10 00:01N 40°42' W 074°00'1 2.6
2017-Dec-09 23:30N 40°41' W 074°01'2 4.5
2017-Dec-09 23:01N 40°39' W 074°02'4 7.3
2017-Dec-09 22:30N 40°42' W 073°60'1 2.8
2017-Dec-09 22:01N 40°41' W 074°01'3 5.7
2017-Dec-09 21:31N 40°38' W 074°02'3 6.8
2017-Dec-09 21:00N 40°42' W 074°00'1 1.4
2017-Dec-09 20:30N 40°42' W 073°60'4 7.1
2017-Dec-09 20:01N 40°39' W 074°02'2 3.7
2017-Dec-09 19:31N 40°41' W 074°01'2 3.4
2017-Dec-09 19:00N 40°42' W 074°00'1 2.7
2017-Dec-09 18:30N 40°41' W 074°01'2 4.3
2017-Dec-09 18:01N 40°39' W 074°02'3 6.9
2017-Dec-09 17:30N 40°42' W 073°60'1 1.9
2017-Dec-09 17:00N 40°41' W 074°01'3 6.2
2017-Dec-09 16:30N 40°38' W 074°02'3 6.5
2017-Dec-09 16:01N 40°41' W 074°00'1 2.0
2017-Dec-09 15:30N 40°42' W 073°60'4 7.4
2017-Dec-09 15:00N 40°39' W 074°02'2 3.6
2017-Dec-09 14:31N 40°41' W 074°01'2 3.4
2017-Dec-09 14:00N 40°42' W 074°00'1 2.7
2017-Dec-09 13:30N 40°41' W 074°01'2 4.4
2017-Dec-09 13:01N 40°39' W 074°02'4 7.4
2017-Dec-09 12:31N 40°42' W 073°60'1 0.1
2017-Dec-09 03:47N 40°42' W 073°58'2 5.6
2017-Dec-09 03:30N 40°42' W 074°00'4 7.0
2017-Dec-09 03:00N 40°39' W 074°02'2 4.5
2017-Dec-09 02:31N 40°41' W 074°01'1 2.6
2017-Dec-09 02:00N 40°42' W 074°00'1 2.8
2017-Dec-09 01:31N 40°41' W 074°01'2 4.3
2017-Dec-09 01:01N 40°39' W 074°02'4 7.3
2017-Dec-09 00:30N 40°42' W 073°60'1 2.3
2017-Dec-09 00:01N 40°42' W 073°58'3 6.9
2017-Dec-08 23:30N 40°45' W 073°57'4 8.0
2017-Dec-08 23:00N 40°42' W 074°00'4 7.6
2017-Dec-08 22:30N 40°45' W 073°57'1 2.2
2017-Dec-08 22:00N 40°46' W 073°56'3 6.0
2017-Dec-08 21:31N 40°44' W 073°58'3 5.4
2017-Dec-08 21:01N 40°42' W 074°01'0 0.3
2017-Dec-08 20:30N 40°41' W 074°01'1 1.5
2017-Dec-08 20:01N 40°42' W 074°00'4 8.2
2017-Dec-08 19:30N 40°46' W 073°57'0 0.3
2017-Dec-08 19:00N 40°46' W 073°57'4 8.6
2017-Dec-08 18:31N 40°42' W 074°00'3 7.0
2017-Dec-08 18:00N 40°45' W 073°57'2 3.2
2017-Dec-08 17:29N 40°46' W 073°56'3 6.6
2017-Dec-08 17:01N 40°44' W 073°58'1 2.2
2017-Dec-08 16:30N 40°45' W 073°58'2 4.5
2017-Dec-08 16:00N 40°46' W 073°56'2 3.4
2017-Dec-08 15:30N 40°45' W 073°57'3 5.9
2017-Dec-08 15:00N 40°42' W 073°59'4 8.4
2017-Dec-08 14:30N 40°46' W 073°57'1 1.2
2017-Dec-08 14:00N 40°45' W 073°57'4 7.3
2017-Dec-08 13:31N 40°42' W 073°59'3 6.5
2017-Dec-08 13:00N 40°45' W 073°57'3 5.4
2017-Dec-08 12:30N 40°43' W 073°58'1 1.3
2017-Dec-08 12:00N 40°42' W 073°58'0 0.0
2017-Dec-08 11:30N 40°42' W 073°58'0 0.0
2017-Dec-08 01:59N 40°42' W 073°58'1 1.3
2017-Dec-08 01:31N 40°42' W 073°59'2 3.0
2017-Dec-08 01:00N 40°44' W 073°58'0 0.1
2017-Dec-08 00:30N 40°44' W 073°58'2 4.8
2017-Dec-08 00:00N 40°42' W 074°00'3 5.1
2017-Dec-07 23:31N 40°44' W 073°58'1 1.3
2017-Dec-07 23:00N 40°43' W 073°58'2 4.3
2017-Dec-07 22:30N 40°42' W 074°00'3 5.4
2017-Dec-07 22:01N 40°44' W 073°58'1 1.8
2017-Dec-07 21:31N 40°43' W 073°58'2 4.3
2017-Dec-07 21:01N 40°42' W 074°00'3 6.0
2017-Dec-07 20:30N 40°44' W 073°58'2 3.4
2017-Dec-07 20:01N 40°43' W 073°58'2 3.1
2017-Dec-07 19:31N 40°42' W 074°00'3 5.9
2017-Dec-07 19:00N 40°45' W 073°58'2 4.0
2017-Dec-07 18:30N 40°43' W 073°58'1 2.4
2017-Dec-07 18:00N 40°42' W 073°60'3 5.6
2017-Dec-07 17:31N 40°45' W 073°58'2 4.1
2017-Dec-07 17:00N 40°43' W 073°58'1 2.4
2017-Dec-07 16:30N 40°42' W 073°60'3 5.2
2017-Dec-07 16:00N 40°45' W 073°58'2 4.2
2017-Dec-07 15:31N 40°43' W 073°58'1 1.5
2017-Dec-07 15:01N 40°42' W 073°59'2 4.8
2017-Dec-07 14:30N 40°45' W 073°58'2 4.3
2017-Dec-07 14:01N 40°43' W 073°58'0 0.5
2017-Dec-07 13:30N 40°43' W 073°59'2 4.3
2017-Dec-07 13:00N 40°45' W 073°58'2 4.3
2017-Dec-07 12:31N 40°43' W 073°58'0 0.1
2017-Dec-07 12:01N 40°43' W 073°58'2 4.1
2017-Dec-07 11:30N 40°45' W 073°58'3 5.1
2017-Dec-07 11:00N 40°42' W 073°58'0 0.0
2017-Dec-07 03:27N 40°42' W 073°58'3 5.9
2017-Dec-07 03:00N 40°45' W 073°58'2 4.4
2017-Dec-07 02:31N 40°43' W 073°58'1 1.4
2017-Dec-07 02:01N 40°42' W 073°59'2 4.6
2017-Dec-07 01:30N 40°45' W 073°58'2 4.4
2017-Dec-07 01:00N 40°43' W 073°58'0 0.1
2017-Dec-07 00:31N 40°42' W 073°59'2 4.5
2017-Dec-07 00:00N 40°45' W 073°58'2 4.8
2017-Dec-06 23:30N 40°42' W 073°59'1 1.1
2017-Dec-06 23:00N 40°43' W 073°58'2 4.4
2017-Dec-06 22:31N 40°45' W 073°58'3 5.5
2017-Dec-06 22:00N 40°42' W 073°60'1 2.3
2017-Dec-06 21:31N 40°43' W 073°58'2 3.9
2017-Dec-06 21:00N 40°45' W 073°58'  
2017-Dec-04 03:25N 40°42' W 073°58'2 4.6
2017-Dec-04 03:00N 40°44' W 073°58'3 5.1
2017-Dec-04 02:30N 40°42' W 074°00'2 4.3
2017-Dec-04 02:00N 40°43' W 073°58'1 1.2
2017-Dec-04 01:31N 40°44' W 073°58'3 5.1
2017-Dec-04 01:01N 40°42' W 074°00'2 4.3
2017-Dec-04 00:30N 40°43' W 073°58'1 1.2
2017-Dec-04 00:00N 40°44' W 073°58'3 5.1
2017-Dec-03 23:30N 40°42' W 074°00'2 4.3
2017-Dec-03 23:00N 40°43' W 073°58'1 1.2
2017-Dec-03 22:30N 40°44' W 073°58'3 5.1
2017-Dec-03 22:00N 40°42' W 074°00'2 4.2
2017-Dec-03 21:30N 40°43' W 073°58'1 1.3
2017-Dec-03 21:00N 40°44' W 073°58'3 5.1
2017-Dec-03 20:30N 40°42' W 074°00'2 4.3
2017-Dec-03 20:01N 40°43' W 073°58'1 1.2
2017-Dec-03 19:30N 40°44' W 073°58'3 5.1
2017-Dec-03 19:00N 40°42' W 074°00'2 4.3
2017-Dec-03 18:31N 40°43' W 073°58'1 1.4
2017-Dec-03 18:00N 40°44' W 073°58'3 5.0
2017-Dec-03 17:30N 40°42' W 074°00'2 4.2
2017-Dec-03 17:01N 40°43' W 073°58'1 1.4
2017-Dec-03 16:30N 40°44' W 073°58'3 5.0
2017-Dec-03 16:01N 40°42' W 074°00'2 4.2
2017-Dec-03 15:31N 40°43' W 073°58'1 1.5
2017-Dec-03 15:00N 40°44' W 073°58'3 5.1
2017-Dec-03 14:31N 40°42' W 074°00'2 4.2
2017-Dec-03 14:00N 40°43' W 073°58'1 1.4
2017-Dec-03 13:31N 40°44' W 073°58'3 5.0
2017-Dec-03 13:01N 40°42' W 074°00'2 4.2
2017-Dec-03 12:30N 40°43' W 073°58'1 1.3
2017-Dec-03 12:01N 40°44' W 073°58'3 5.0
2017-Dec-03 11:30N 40°42' W 074°00'2 3.1
2017-Dec-03 11:00N 40°42' W 073°58'0 0.0
2017-Dec-03 03:47N 40°42' W 073°58'2 8.3
2017-Dec-03 03:31N 40°41' W 074°01'0 0.9
2017-Dec-03 03:01N 40°41' W 074°01'2 3.3
2017-Dec-03 02:31N 40°42' W 074°00'1 2.8
2017-Dec-03 02:01N 40°41' W 074°01'2 4.3
2017-Dec-03 01:31N 40°39' W 074°02'4 7.4
2017-Dec-03 01:01N 40°42' W 073°60'1 2.6
2017-Dec-03 00:31N 40°41' W 074°01'3 5.9
2017-Dec-03 00:01N 40°38' W 074°02'4 7.0
2017-Dec-02 23:30N 40°42' W 074°00'1 1.5
2017-Dec-02 23:01N 40°42' W 073°60'4 7.4
2017-Dec-02 22:31N 40°39' W 074°02'2 3.2
2017-Dec-02 22:01N 40°40' W 074°01'2 4.3
2017-Dec-02 21:30N 40°42' W 073°60'2 3.2
2017-Dec-02 21:01N 40°41' W 074°01'0 0.3
2017-Dec-02 20:31N 40°41' W 074°01'0 0.3
2017-Dec-02 20:00N 40°41' W 074°01'0 0.0
2017-Dec-02 19:30N 40°41' W 074°01'3 5.4
2017-Dec-02 19:01N 40°38' W 074°02'3 7.0
2017-Dec-02 18:31N 40°42' W 074°00'1 1.5
2017-Dec-02 18:01N 40°42' W 073°60'4 7.1
2017-Dec-02 17:31N 40°39' W 074°02'1 2.6
2017-Dec-02 17:01N 40°40' W 074°01'2 4.2
2017-Dec-02 16:31N 40°42' W 074°00'1 2.7
2017-Dec-02 16:00N 40°41' W 074°01'2 3.1
2017-Dec-02 15:30N 40°42' W 073°60'0 0.0
2017-Dec-02 15:01N 40°42' W 073°60'1 2.3
2017-Dec-02 14:31N 40°41' W 074°01'3 6.3
2017-Dec-02 14:01N 40°38' W 074°02'3 6.1
2017-Dec-02 13:31N 40°41' W 074°01'1 2.5
2017-Dec-02 13:00N 40°42' W 073°60'4 7.2
2017-Dec-02 12:31N 40°39' W 074°02'4 7.7
2017-Dec-02 12:01N 40°42' W 073°59'1 1.8
2017-Dec-02 11:31N 40°42' W 073°58'0 0.0
2017-Dec-02 04:06N 40°42' W 073°58'0 2.8
2017-Dec-02 04:01N 40°42' W 073°58'4 8.3
2017-Dec-02 03:31N 40°39' W 074°02'4 7.3
2017-Dec-02 03:00N 40°42' W 073°60'1 1.1
2017-Dec-02 02:31N 40°42' W 074°00'4 7.5
2017-Dec-02 02:00N 40°38' W 074°02'4 7.1
2017-Dec-02 01:30N 40°42' W 074°00'1 1.3
2017-Dec-02 01:01N 40°42' W 074°00'3 6.9
2017-Dec-02 00:30N 40°39' W 074°02'2 4.5
2017-Dec-02 00:00N 40°41' W 074°01'1 2.5
2017-Dec-01 23:30N 40°42' W 074°00'4 7.1
2017-Dec-01 23:00N 40°39' W 074°02'2 4.5
2017-Dec-01 22:31N 40°41' W 074°01'1 2.7
2017-Dec-01 22:00N 40°42' W 074°00'4 7.1
2017-Dec-01 21:30N 40°39' W 074°02'2 4.5
2017-Dec-01 21:00N 40°41' W 074°01'1 2.5
2017-Dec-01 20:31N 40°42' W 074°00'1 2.7
2017-Dec-01 20:01N 40°41' W 074°01'2 4.0
2017-Dec-01 19:31N 40°39' W 074°02'4 7.0
2017-Dec-01 19:01N 40°42' W 073°60'1 1.3
2017-Dec-01 18:31N 40°42' W 074°00'4 7.2
2017-Dec-01 18:01N 40°38' W 074°02'4 7.1
2017-Dec-01 17:30N 40°42' W 074°00'1 1.5
2017-Dec-01 17:01N 40°42' W 073°60'  

Dump ship's entire track history